sensor_id;sensor_type;location;lat;lon;timestamp;P1;durP1;ratioP1;P2;durP2;ratioP2
65189;SDS011;51777;53.570;9.984;2023-04-03T00:00:43;6.65;;;1.92;;
65189;SDS011;51777;53.570;9.984;2023-04-03T00:03:09;8.05;;;2.00;;
65189;SDS011;51777;53.570;9.984;2023-04-03T00:05:34;7.75;;;2.30;;
65189;SDS011;51777;53.570;9.984;2023-04-03T00:08:00;9.25;;;2.33;;
65189;SDS011;51777;53.570;9.984;2023-04-03T00:10:27;5.35;;;2.00;;
65189;SDS011;51777;53.570;9.984;2023-04-03T00:12:53;10.60;;;2.63;;
65189;SDS011;51777;53.570;9.984;2023-04-03T00:15:18;5.45;;;2.00;;
65189;SDS011;51777;53.570;9.984;2023-04-03T00:17:44;7.22;;;1.80;;
65189;SDS011;51777;53.570;9.984;2023-04-03T00:20:10;7.85;;;2.60;;
65189;SDS011;51777;53.570;9.984;2023-04-03T00:22:36;8.80;;;2.20;;
65189;SDS011;51777;53.570;9.984;2023-04-03T00:25:02;6.25;;;2.33;;
65189;SDS011;51777;53.570;9.984;2023-04-03T00:27:28;7.28;;;1.98;;
65189;SDS011;51777;53.570;9.984;2023-04-03T00:29:54;7.47;;;2.20;;
65189;SDS011;51777;53.570;9.984;2023-04-03T00:32:19;9.55;;;2.55;;
65189;SDS011;51777;53.570;9.984;2023-04-03T00:34:44;9.63;;;2.70;;
65189;SDS011;51777;53.570;9.984;2023-04-03T00:37:10;5.95;;;2.38;;
65189;SDS011;51777;53.570;9.984;2023-04-03T00:39:35;4.82;;;2.22;;
65189;SDS011;51777;53.570;9.984;2023-04-03T00:42:01;7.95;;;2.40;;
65189;SDS011;51777;53.570;9.984;2023-04-03T00:46:58;8.85;;;2.83;;
65189;SDS011;51777;53.570;9.984;2023-04-03T00:49:23;7.18;;;2.13;;
65189;SDS011;51777;53.570;9.984;2023-04-03T00:51:49;9.00;;;2.03;;
65189;SDS011;51777;53.570;9.984;2023-04-03T00:54:16;7.90;;;2.28;;
65189;SDS011;51777;53.570;9.984;2023-04-03T00:56:41;5.35;;;2.22;;
65189;SDS011;51777;53.570;9.984;2023-04-03T00:59:10;7.97;;;2.22;;
65189;SDS011;51777;53.570;9.984;2023-04-03T01:01:51;6.70;;;2.00;;
65189;SDS011;51777;53.570;9.984;2023-04-03T01:04:50;12.43;;;2.20;;
65189;SDS011;51777;53.570;9.984;2023-04-03T01:09:47;10.55;;;2.72;;
65189;SDS011;51777;53.570;9.984;2023-04-03T01:12:19;6.32;;;2.63;;
65189;SDS011;51777;53.570;9.984;2023-04-03T01:14:48;6.10;;;2.58;;
65189;SDS011;51777;53.570;9.984;2023-04-03T01:17:29;9.30;;;2.78;;
65189;SDS011;51777;53.570;9.984;2023-04-03T01:25:24;8.10;;;2.33;;
65189;SDS011;51777;53.570;9.984;2023-04-03T01:27:49;8.93;;;2.40;;
65189;SDS011;51777;53.570;9.984;2023-04-03T01:30:16;9.57;;;2.38;;
65189;SDS011;51777;53.570;9.984;2023-04-03T01:32:43;9.00;;;2.30;;
65189;SDS011;51777;53.570;9.984;2023-04-03T01:35:09;7.85;;;2.38;;
65189;SDS011;51777;53.570;9.984;2023-04-03T01:37:35;5.85;;;2.00;;
65189;SDS011;51777;53.570;9.984;2023-04-03T01:40:01;4.80;;;2.05;;
65189;SDS011;51777;53.570;9.984;2023-04-03T01:42:27;6.05;;;2.20;;
65189;SDS011;51777;53.570;9.984;2023-04-03T01:44:52;8.50;;;2.45;;
65189;SDS011;51777;53.570;9.984;2023-04-03T01:47:18;7.55;;;2.60;;
65189;SDS011;51777;53.570;9.984;2023-04-03T01:49:43;6.55;;;1.92;;
65189;SDS011;51777;53.570;9.984;2023-04-03T01:52:09;6.38;;;2.40;;
65189;SDS011;51777;53.570;9.984;2023-04-03T01:54:34;7.97;;;2.20;;
65189;SDS011;51777;53.570;9.984;2023-04-03T01:56:59;6.80;;;2.20;;
65189;SDS011;51777;53.570;9.984;2023-04-03T01:59:25;9.40;;;2.80;;
65189;SDS011;51777;53.570;9.984;2023-04-03T02:01:50;9.10;;;2.50;;
65189;SDS011;51777;53.570;9.984;2023-04-03T02:04:16;6.95;;;2.25;;
65189;SDS011;51777;53.570;9.984;2023-04-03T02:06:41;8.52;;;2.30;;
65189;SDS011;51777;53.570;9.984;2023-04-03T02:09:06;9.23;;;2.22;;
65189;SDS011;51777;53.570;9.984;2023-04-03T02:11:32;7.57;;;2.40;;
65189;SDS011;51777;53.570;9.984;2023-04-03T02:13:57;6.15;;;2.25;;
65189;SDS011;51777;53.570;9.984;2023-04-03T02:16:23;5.22;;;1.88;;
65189;SDS011;51777;53.570;9.984;2023-04-03T02:18:48;9.30;;;2.25;;
65189;SDS011;51777;53.570;9.984;2023-04-03T02:21:13;5.45;;;2.20;;
65189;SDS011;51777;53.570;9.984;2023-04-03T02:23:39;9.15;;;2.35;;
65189;SDS011;51777;53.570;9.984;2023-04-03T02:26:09;4.05;;;1.92;;
65189;SDS011;51777;53.570;9.984;2023-04-03T02:28:36;4.25;;;1.90;;
65189;SDS011;51777;53.570;9.984;2023-04-03T02:31:02;9.52;;;2.45;;
65189;SDS011;51777;53.570;9.984;2023-04-03T02:33:29;6.20;;;2.30;;
65189;SDS011;51777;53.570;9.984;2023-04-03T02:35:55;9.02;;;2.50;;
65189;SDS011;51777;53.570;9.984;2023-04-03T02:38:22;10.50;;;2.17;;
65189;SDS011;51777;53.570;9.984;2023-04-03T02:40:48;6.32;;;2.08;;
65189;SDS011;51777;53.570;9.984;2023-04-03T02:43:13;8.18;;;2.22;;
65189;SDS011;51777;53.570;9.984;2023-04-03T02:45:39;6.95;;;2.00;;
65189;SDS011;51777;53.570;9.984;2023-04-03T02:48:04;3.72;;;2.35;;
65189;SDS011;51777;53.570;9.984;2023-04-03T02:50:31;7.30;;;2.03;;
65189;SDS011;51777;53.570;9.984;2023-04-03T02:52:57;7.95;;;2.08;;
65189;SDS011;51777;53.570;9.984;2023-04-03T02:55:22;6.70;;;2.30;;
65189;SDS011;51777;53.570;9.984;2023-04-03T02:57:47;4.90;;;1.77;;
65189;SDS011;51777;53.570;9.984;2023-04-03T03:00:13;12.45;;;2.75;;
65189;SDS011;51777;53.570;9.984;2023-04-03T03:02:39;3.83;;;2.00;;
65189;SDS011;51777;53.570;9.984;2023-04-03T03:05:05;6.00;;;2.10;;
65189;SDS011;51777;53.570;9.984;2023-04-03T03:07:30;7.45;;;2.22;;
65189;SDS011;51777;53.570;9.984;2023-04-03T03:09:56;7.40;;;2.25;;
65189;SDS011;51777;53.570;9.984;2023-04-03T03:12:21;8.95;;;2.53;;
65189;SDS011;51777;53.570;9.984;2023-04-03T03:14:48;4.70;;;2.05;;
65189;SDS011;51777;53.570;9.984;2023-04-03T03:17:13;8.57;;;2.40;;
65189;SDS011;51777;53.570;9.984;2023-04-03T03:19:39;7.05;;;2.00;;
65189;SDS011;51777;53.570;9.984;2023-04-03T03:22:04;7.70;;;2.38;;
65189;SDS011;51777;53.570;9.984;2023-04-03T03:24:30;9.18;;;2.40;;
65189;SDS011;51777;53.570;9.984;2023-04-03T03:26:55;5.88;;;2.25;;
65189;SDS011;51777;53.570;9.984;2023-04-03T03:29:21;7.55;;;2.00;;
65189;SDS011;51777;53.570;9.984;2023-04-03T03:31:46;6.65;;;1.92;;
65189;SDS011;51777;53.570;9.984;2023-04-03T03:34:11;5.68;;;2.17;;
65189;SDS011;51777;53.570;9.984;2023-04-03T03:36:37;6.63;;;2.60;;
65189;SDS011;51777;53.570;9.984;2023-04-03T03:39:03;8.40;;;2.30;;
65189;SDS011;51777;53.570;9.984;2023-04-03T03:41:29;7.75;;;2.60;;
65189;SDS011;51777;53.570;9.984;2023-04-03T03:43:54;7.85;;;2.65;;
65189;SDS011;51777;53.570;9.984;2023-04-03T03:46:20;7.82;;;2.55;;
65189;SDS011;51777;53.570;9.984;2023-04-03T03:48:45;9.98;;;2.83;;
65189;SDS011;51777;53.570;9.984;2023-04-03T03:51:11;5.97;;;2.25;;
65189;SDS011;51777;53.570;9.984;2023-04-03T03:53:36;5.80;;;2.15;;
65189;SDS011;51777;53.570;9.984;2023-04-03T03:56:02;7.28;;;2.15;;
65189;SDS011;51777;53.570;9.984;2023-04-03T03:58:27;4.95;;;2.17;;
65189;SDS011;51777;53.570;9.984;2023-04-03T04:00:53;5.38;;;2.15;;
65189;SDS011;51777;53.570;9.984;2023-04-03T04:03:18;5.00;;;2.30;;
65189;SDS011;51777;53.570;9.984;2023-04-03T04:05:44;7.72;;;2.45;;
65189;SDS011;51777;53.570;9.984;2023-04-03T04:08:09;12.32;;;2.70;;
65189;SDS011;51777;53.570;9.984;2023-04-03T04:10:35;8.15;;;2.30;;
65189;SDS011;51777;53.570;9.984;2023-04-03T04:13:02;4.15;;;2.30;;
65189;SDS011;51777;53.570;9.984;2023-04-03T04:15:28;7.63;;;2.35;;
65189;SDS011;51777;53.570;9.984;2023-04-03T04:17:53;9.13;;;2.85;;
65189;SDS011;51777;53.570;9.984;2023-04-03T04:20:19;5.68;;;2.33;;
65189;SDS011;51777;53.570;9.984;2023-04-03T04:22:44;6.65;;;2.30;;
65189;SDS011;51777;53.570;9.984;2023-04-03T04:25:10;6.82;;;2.40;;
65189;SDS011;51777;53.570;9.984;2023-04-03T04:27:35;5.88;;;2.90;;
65189;SDS011;51777;53.570;9.984;2023-04-03T04:30:02;6.45;;;2.65;;
65189;SDS011;51777;53.570;9.984;2023-04-03T04:35:03;4.22;;;2.42;;
65189;SDS011;51777;53.570;9.984;2023-04-03T04:37:29;7.15;;;2.60;;
65189;SDS011;51777;53.570;9.984;2023-04-03T04:39:57;7.15;;;2.75;;
65189;SDS011;51777;53.570;9.984;2023-04-03T04:42:22;5.57;;;2.70;;
65189;SDS011;51777;53.570;9.984;2023-04-03T04:44:48;6.10;;;2.40;;
65189;SDS011;51777;53.570;9.984;2023-04-03T04:47:13;9.10;;;2.70;;
65189;SDS011;51777;53.570;9.984;2023-04-03T04:49:39;6.15;;;2.50;;
65189;SDS011;51777;53.570;9.984;2023-04-03T04:52:04;7.20;;;2.80;;
65189;SDS011;51777;53.570;9.984;2023-04-03T04:54:30;9.98;;;3.10;;
65189;SDS011;51777;53.570;9.984;2023-04-03T04:56:55;13.32;;;4.18;;
65189;SDS011;51777;53.570;9.984;2023-04-03T04:59:27;6.50;;;3.20;;
65189;SDS011;51777;53.570;9.984;2023-04-03T05:01:52;14.90;;;4.60;;
65189;SDS011;51777;53.570;9.984;2023-04-03T05:04:17;10.48;;;4.22;;
65189;SDS011;51777;53.570;9.984;2023-04-03T05:06:43;8.52;;;3.83;;
65189;SDS011;51777;53.570;9.984;2023-04-03T05:09:08;7.75;;;3.15;;
65189;SDS011;51777;53.570;9.984;2023-04-03T05:11:35;11.20;;;3.30;;
65189;SDS011;51777;53.570;9.984;2023-04-03T05:14:01;6.63;;;2.60;;
65189;SDS011;51777;53.570;9.984;2023-04-03T05:16:26;8.63;;;2.97;;
65189;SDS011;51777;53.570;9.984;2023-04-03T05:18:51;6.65;;;2.60;;
65189;SDS011;51777;53.570;9.984;2023-04-03T05:21:17;5.25;;;2.70;;
65189;SDS011;51777;53.570;9.984;2023-04-03T05:23:43;8.75;;;2.72;;
65189;SDS011;51777;53.570;9.984;2023-04-03T05:26:09;7.25;;;3.20;;
65189;SDS011;51777;53.570;9.984;2023-04-03T05:28:34;4.45;;;2.67;;
65189;SDS011;51777;53.570;9.984;2023-04-03T05:31:01;9.68;;;3.08;;
65189;SDS011;51777;53.570;9.984;2023-04-03T05:33:27;5.43;;;2.63;;
65189;SDS011;51777;53.570;9.984;2023-04-03T05:35:53;13.43;;;2.63;;
65189;SDS011;51777;53.570;9.984;2023-04-03T05:38:19;7.00;;;2.95;;
65189;SDS011;51777;53.570;9.984;2023-04-03T05:40:45;6.03;;;2.38;;
65189;SDS011;51777;53.570;9.984;2023-04-03T05:43:10;9.27;;;2.72;;
65189;SDS011;51777;53.570;9.984;2023-04-03T05:45:46;6.68;;;2.92;;
65189;SDS011;51777;53.570;9.984;2023-04-03T05:48:12;11.27;;;2.83;;
65189;SDS011;51777;53.570;9.984;2023-04-03T05:50:38;9.93;;;3.15;;
65189;SDS011;51777;53.570;9.984;2023-04-03T05:53:06;7.57;;;2.75;;
65189;SDS011;51777;53.570;9.984;2023-04-03T05:55:34;8.40;;;2.83;;
65189;SDS011;51777;53.570;9.984;2023-04-03T05:57:59;10.85;;;3.20;;
65189;SDS011;51777;53.570;9.984;2023-04-03T06:00:25;17.60;;;3.30;;
65189;SDS011;51777;53.570;9.984;2023-04-03T06:02:50;5.20;;;2.90;;
65189;SDS011;51777;53.570;9.984;2023-04-03T06:05:17;4.05;;;2.63;;
65189;SDS011;51777;53.570;9.984;2023-04-03T06:07:42;9.15;;;2.88;;
65189;SDS011;51777;53.570;9.984;2023-04-03T06:10:10;9.00;;;2.67;;
65189;SDS011;51777;53.570;9.984;2023-04-03T06:12:37;7.25;;;2.72;;
65189;SDS011;51777;53.570;9.984;2023-04-03T06:15:02;7.85;;;2.80;;
65189;SDS011;51777;53.570;9.984;2023-04-03T06:17:28;12.35;;;3.58;;
65189;SDS011;51777;53.570;9.984;2023-04-03T06:19:54;7.65;;;2.88;;
65189;SDS011;51777;53.570;9.984;2023-04-03T06:22:20;7.25;;;2.88;;
65189;SDS011;51777;53.570;9.984;2023-04-03T06:24:46;7.07;;;2.63;;
65189;SDS011;51777;53.570;9.984;2023-04-03T06:27:11;10.27;;;2.50;;
65189;SDS011;51777;53.570;9.984;2023-04-03T06:29:37;12.57;;;2.60;;
65189;SDS011;51777;53.570;9.984;2023-04-03T06:32:03;9.68;;;2.75;;
65189;SDS011;51777;53.570;9.984;2023-04-03T06:34:28;8.48;;;2.38;;
65189;SDS011;51777;53.570;9.984;2023-04-03T06:36:54;10.48;;;2.55;;
65189;SDS011;51777;53.570;9.984;2023-04-03T06:39:20;8.77;;;2.58;;
65189;SDS011;51777;53.570;9.984;2023-04-03T06:41:47;12.32;;;2.67;;
65189;SDS011;51777;53.570;9.984;2023-04-03T06:44:13;15.30;;;2.58;;
65189;SDS011;51777;53.570;9.984;2023-04-03T06:46:41;6.80;;;1.88;;
65189;SDS011;51777;53.570;9.984;2023-04-03T06:49:07;10.57;;;1.90;;
65189;SDS011;51777;53.570;9.984;2023-04-03T06:51:33;11.65;;;2.10;;
65189;SDS011;51777;53.570;9.984;2023-04-03T06:53:59;13.05;;;2.30;;
65189;SDS011;51777;53.570;9.984;2023-04-03T06:56:26;9.02;;;2.10;;
65189;SDS011;51777;53.570;9.984;2023-04-03T06:58:53;16.02;;;3.25;;
65189;SDS011;51777;53.570;9.984;2023-04-03T07:01:23;6.40;;;1.55;;
65189;SDS011;51777;53.570;9.984;2023-04-03T07:03:51;3.60;;;1.50;;
65189;SDS011;51777;53.570;9.984;2023-04-03T07:06:17;5.38;;;1.83;;
65189;SDS011;51777;53.570;9.984;2023-04-03T07:08:45;7.75;;;1.95;;
65189;SDS011;51777;53.570;9.984;2023-04-03T07:11:13;4.80;;;1.60;;
65189;SDS011;51777;53.570;9.984;2023-04-03T07:13:38;5.25;;;1.70;;
65189;SDS011;51777;53.570;9.984;2023-04-03T07:16:05;6.32;;;1.40;;
65189;SDS011;51777;53.570;9.984;2023-04-03T07:18:31;6.50;;;1.40;;
65189;SDS011;51777;53.570;9.984;2023-04-03T07:20:57;5.15;;;1.52;;
65189;SDS011;51777;53.570;9.984;2023-04-03T07:23:23;7.18;;;1.60;;
65189;SDS011;51777;53.570;9.984;2023-04-03T07:25:50;3.83;;;1.23;;
65189;SDS011;51777;53.570;9.984;2023-04-03T07:28:17;3.17;;;1.38;;
65189;SDS011;51777;53.570;9.984;2023-04-03T07:30:47;4.40;;;1.50;;
65189;SDS011;51777;53.570;9.984;2023-04-03T07:33:33;6.68;;;1.40;;
65189;SDS011;51777;53.570;9.984;2023-04-03T07:36:00;7.63;;;1.48;;
65189;SDS011;51777;53.570;9.984;2023-04-03T07:38:25;7.30;;;1.60;;
65189;SDS011;51777;53.570;9.984;2023-04-03T07:40:51;6.95;;;1.40;;
65189;SDS011;51777;53.570;9.984;2023-04-03T07:43:18;3.25;;;1.67;;
65189;SDS011;51777;53.570;9.984;2023-04-03T07:45:45;2.15;;;1.23;;
65189;SDS011;51777;53.570;9.984;2023-04-03T07:48:14;4.38;;;1.40;;
65189;SDS011;51777;53.570;9.984;2023-04-03T07:50:41;2.75;;;1.20;;
65189;SDS011;51777;53.570;9.984;2023-04-03T07:53:06;4.55;;;1.58;;
65189;SDS011;51777;53.570;9.984;2023-04-03T07:55:35;4.45;;;1.30;;
65189;SDS011;51777;53.570;9.984;2023-04-03T08:00:33;3.88;;;1.38;;
65189;SDS011;51777;53.570;9.984;2023-04-03T08:02:58;3.85;;;1.30;;
65189;SDS011;51777;53.570;9.984;2023-04-03T08:05:24;5.22;;;1.40;;
65189;SDS011;51777;53.570;9.984;2023-04-03T08:07:50;4.13;;;1.30;;
65189;SDS011;51777;53.570;9.984;2023-04-03T08:10:15;1.83;;;1.10;;
65189;SDS011;51777;53.570;9.984;2023-04-03T08:12:41;3.70;;;0.88;;
65189;SDS011;51777;53.570;9.984;2023-04-03T08:15:16;4.20;;;1.30;;
65189;SDS011;51777;53.570;9.984;2023-04-03T08:17:42;1.90;;;1.05;;
65189;SDS011;51777;53.570;9.984;2023-04-03T08:20:07;3.85;;;1.20;;
65189;SDS011;51777;53.570;9.984;2023-04-03T08:22:35;3.35;;;1.20;;
65189;SDS011;51777;53.570;9.984;2023-04-03T08:25:00;3.20;;;1.23;;
65189;SDS011;51777;53.570;9.984;2023-04-03T08:27:26;3.58;;;1.05;;
65189;SDS011;51777;53.570;9.984;2023-04-03T08:29:53;3.45;;;1.33;;
65189;SDS011;51777;53.570;9.984;2023-04-03T08:32:19;3.13;;;1.30;;
65189;SDS011;51777;53.570;9.984;2023-04-03T08:34:45;2.95;;;1.10;;
65189;SDS011;51777;53.570;9.984;2023-04-03T08:37:11;2.42;;;1.10;;
65189;SDS011;51777;53.570;9.984;2023-04-03T08:39:36;8.55;;;1.50;;
65189;SDS011;51777;53.570;9.984;2023-04-03T08:42:04;5.53;;;1.40;;
65189;SDS011;51777;53.570;9.984;2023-04-03T08:44:39;3.03;;;1.20;;
65189;SDS011;51777;53.570;9.984;2023-04-03T08:49:43;2.50;;;0.90;;
65189;SDS011;51777;53.570;9.984;2023-04-03T08:52:26;7.32;;;1.20;;
65189;SDS011;51777;53.570;9.984;2023-04-03T08:55:03;4.18;;;1.10;;
65189;SDS011;51777;53.570;9.984;2023-04-03T08:57:40;3.22;;;1.20;;
65189;SDS011;51777;53.570;9.984;2023-04-03T09:02:57;5.32;;;1.17;;
65189;SDS011;51777;53.570;9.984;2023-04-03T09:08:04;2.88;;;1.08;;
65189;SDS011;51777;53.570;9.984;2023-04-03T09:10:32;3.00;;;1.00;;
65189;SDS011;51777;53.570;9.984;2023-04-03T09:13:05;3.60;;;1.13;;
65189;SDS011;51777;53.570;9.984;2023-04-03T09:15:33;5.32;;;1.30;;
65189;SDS011;51777;53.570;9.984;2023-04-03T09:18:05;4.57;;;1.02;;
65189;SDS011;51777;53.570;9.984;2023-04-03T09:23:55;5.18;;;1.40;;
65189;SDS011;51777;53.570;9.984;2023-04-03T09:26:04;3.35;;;1.00;;
65189;SDS011;51777;53.570;9.984;2023-04-03T09:28:35;3.00;;;1.10;;
65189;SDS011;51777;53.570;9.984;2023-04-03T09:33:45;5.90;;;1.30;;
65189;SDS011;51777;53.570;9.984;2023-04-03T09:36:12;2.38;;;1.17;;
65189;SDS011;51777;53.570;9.984;2023-04-03T09:38:37;2.17;;;0.90;;
65189;SDS011;51777;53.570;9.984;2023-04-03T09:41:16;2.25;;;1.00;;
65189;SDS011;51777;53.570;9.984;2023-04-03T09:43:51;3.67;;;1.20;;
65189;SDS011;51777;53.570;9.984;2023-04-03T09:46:28;3.00;;;0.93;;
65189;SDS011;51777;53.570;9.984;2023-04-03T09:51:29;2.33;;;1.00;;
65189;SDS011;51777;53.570;9.984;2023-04-03T09:53:56;1.60;;;0.77;;
65189;SDS011;51777;53.570;9.984;2023-04-03T09:56:25;2.58;;;0.98;;
65189;SDS011;51777;53.570;9.984;2023-04-03T10:01:31;3.22;;;1.67;;
65189;SDS011;51777;53.570;9.984;2023-04-03T10:06:51;4.97;;;1.30;;
65189;SDS011;51777;53.570;9.984;2023-04-03T10:09:20;3.72;;;1.05;;
65189;SDS011;51777;53.570;9.984;2023-04-03T10:12:06;3.35;;;1.00;;
65189;SDS011;51777;53.570;9.984;2023-04-03T10:14:35;4.78;;;1.30;;
65189;SDS011;51777;53.570;9.984;2023-04-03T10:17:13;2.08;;;0.80;;
65189;SDS011;51777;53.570;9.984;2023-04-03T10:19:41;4.20;;;1.40;;
65189;SDS011;51777;53.570;9.984;2023-04-03T10:25:01;4.20;;;1.00;;
65189;SDS011;51777;53.570;9.984;2023-04-03T10:33:25;5.20;;;1.10;;
65189;SDS011;51777;53.570;9.984;2023-04-03T10:36:11;3.25;;;0.70;;
65189;SDS011;51777;53.570;9.984;2023-04-03T10:39:06;1.08;;;0.70;;
65189;SDS011;51777;53.570;9.984;2023-04-03T10:46:46;6.05;;;0.90;;
65189;SDS011;51777;53.570;9.984;2023-04-03T10:51:48;5.05;;;0.80;;
65189;SDS011;51777;53.570;9.984;2023-04-03T10:54:25;2.15;;;1.00;;
65189;SDS011;51777;53.570;9.984;2023-04-03T10:56:55;3.03;;;1.33;;
65189;SDS011;51777;53.570;9.984;2023-04-03T10:59:32;3.60;;;1.00;;
65189;SDS011;51777;53.570;9.984;2023-04-03T11:02:04;2.53;;;1.00;;
65189;SDS011;51777;53.570;9.984;2023-04-03T11:04:34;2.40;;;1.30;;
65189;SDS011;51777;53.570;9.984;2023-04-03T11:07:14;3.10;;;0.80;;
65189;SDS011;51777;53.570;9.984;2023-04-03T11:09:44;2.05;;;1.23;;
65189;SDS011;51777;53.570;9.984;2023-04-03T11:12:33;3.72;;;1.00;;
65189;SDS011;51777;53.570;9.984;2023-04-03T11:15:06;2.40;;;0.88;;
65189;SDS011;51777;53.570;9.984;2023-04-03T11:17:39;3.50;;;0.95;;
65189;SDS011;51777;53.570;9.984;2023-04-03T11:20:22;2.03;;;1.10;;
65189;SDS011;51777;53.570;9.984;2023-04-03T11:22:57;3.72;;;0.98;;
65189;SDS011;51777;53.570;9.984;2023-04-03T11:25:25;2.92;;;1.08;;
65189;SDS011;51777;53.570;9.984;2023-04-03T11:27:56;3.38;;;1.05;;
65189;SDS011;51777;53.570;9.984;2023-04-03T11:30:40;3.38;;;1.00;;
65189;SDS011;51777;53.570;9.984;2023-04-03T11:33:32;4.05;;;1.10;;
65189;SDS011;51777;53.570;9.984;2023-04-03T11:36:10;6.70;;;1.20;;
65189;SDS011;51777;53.570;9.984;2023-04-03T11:38:44;4.38;;;1.33;;
65189;SDS011;51777;53.570;9.984;2023-04-03T11:41:25;3.97;;;1.30;;
65189;SDS011;51777;53.570;9.984;2023-04-03T11:44:06;2.40;;;1.10;;
65189;SDS011;51777;53.570;9.984;2023-04-03T11:46:55;10.00;;;1.70;;
65189;SDS011;51777;53.570;9.984;2023-04-03T12:13:43;4.35;;;1.10;;
65189;SDS011;51777;53.570;9.984;2023-04-03T12:18:57;2.40;;;0.93;;
65189;SDS011;51777;53.570;9.984;2023-04-03T12:26:46;4.95;;;1.05;;
65189;SDS011;51777;53.570;9.984;2023-04-03T12:37:19;6.05;;;1.25;;
65189;SDS011;51777;53.570;9.984;2023-04-03T12:40:05;4.05;;;1.13;;
65189;SDS011;51777;53.570;9.984;2023-04-03T12:45:43;2.13;;;1.00;;
65189;SDS011;51777;53.570;9.984;2023-04-03T12:48:14;3.05;;;1.13;;
65189;SDS011;51777;53.570;9.984;2023-04-03T12:50:41;2.15;;;0.85;;
65189;SDS011;51777;53.570;9.984;2023-04-03T12:53:19;4.13;;;1.10;;
65189;SDS011;51777;53.570;9.984;2023-04-03T12:55:49;4.32;;;1.10;;
65189;SDS011;51777;53.570;9.984;2023-04-03T12:58:23;1.98;;;1.00;;
65189;SDS011;51777;53.570;9.984;2023-04-03T13:01:12;1.80;;;1.00;;
65189;SDS011;51777;53.570;9.984;2023-04-03T13:03:43;3.00;;;0.90;;
65189;SDS011;51777;53.570;9.984;2023-04-03T13:06:17;8.52;;;1.05;;
65189;SDS011;51777;53.570;9.984;2023-04-03T13:11:16;2.00;;;0.85;;
65189;SDS011;51777;53.570;9.984;2023-04-03T13:14:04;2.90;;;1.10;;
65189;SDS011;51777;53.570;9.984;2023-04-03T13:16:39;3.45;;;1.00;;
65189;SDS011;51777;53.570;9.984;2023-04-03T13:19:06;5.40;;;0.98;;
65189;SDS011;51777;53.570;9.984;2023-04-03T13:21:40;2.53;;;0.90;;
65189;SDS011;51777;53.570;9.984;2023-04-03T13:24:06;2.10;;;0.80;;
65189;SDS011;51777;53.570;9.984;2023-04-03T13:26:33;2.65;;;0.98;;
65189;SDS011;51777;53.570;9.984;2023-04-03T13:29:04;6.60;;;1.00;;
65189;SDS011;51777;53.570;9.984;2023-04-03T13:31:32;2.72;;;1.20;;
65189;SDS011;51777;53.570;9.984;2023-04-03T13:34:05;4.18;;;1.00;;
65189;SDS011;51777;53.570;9.984;2023-04-03T13:36:34;3.00;;;1.10;;
65189;SDS011;51777;53.570;9.984;2023-04-03T13:41:41;2.95;;;1.10;;
65189;SDS011;51777;53.570;9.984;2023-04-03T13:46:45;6.25;;;1.40;;
65189;SDS011;51777;53.570;9.984;2023-04-03T13:49:32;1.27;;;0.82;;
65189;SDS011;51777;53.570;9.984;2023-04-03T13:51:58;2.55;;;1.15;;
65189;SDS011;51777;53.570;9.984;2023-04-03T13:54:31;8.65;;;1.42;;
65189;SDS011;51777;53.570;9.984;2023-04-03T13:57:00;2.95;;;1.30;;
65189;SDS011;51777;53.570;9.984;2023-04-03T13:59:33;3.13;;;0.90;;
65189;SDS011;51777;53.570;9.984;2023-04-03T14:07:14;2.60;;;0.90;;
65189;SDS011;51777;53.570;9.984;2023-04-03T14:09:42;2.47;;;0.98;;
65189;SDS011;51777;53.570;9.984;2023-04-03T14:12:12;3.30;;;1.00;;
65189;SDS011;51777;53.570;9.984;2023-04-03T14:17:14;6.45;;;0.98;;
65189;SDS011;51777;53.570;9.984;2023-04-03T14:19:42;2.47;;;0.80;;
65189;SDS011;51777;53.570;9.984;2023-04-03T14:22:21;8.32;;;1.00;;
65189;SDS011;51777;53.570;9.984;2023-04-03T14:24:47;2.97;;;0.80;;
65189;SDS011;51777;53.570;9.984;2023-04-03T14:27:18;1.75;;;0.80;;
65189;SDS011;51777;53.570;9.984;2023-04-03T14:30:25;2.10;;;1.00;;
65189;SDS011;51777;53.570;9.984;2023-04-03T14:32:53;8.32;;;1.17;;
65189;SDS011;51777;53.570;9.984;2023-04-03T14:35:18;2.28;;;0.90;;
65189;SDS011;51777;53.570;9.984;2023-04-03T14:37:48;3.38;;;1.00;;
65189;SDS011;51777;53.570;9.984;2023-04-03T14:40:26;2.33;;;0.70;;
65189;SDS011;51777;53.570;9.984;2023-04-03T14:43:42;2.47;;;0.90;;
65189;SDS011;51777;53.570;9.984;2023-04-03T14:46:11;5.13;;;1.30;;
65189;SDS011;51777;53.570;9.984;2023-04-03T14:48:39;2.17;;;0.80;;
65189;SDS011;51777;53.570;9.984;2023-04-03T14:51:05;6.90;;;1.05;;
65189;SDS011;51777;53.570;9.984;2023-04-03T14:53:31;3.25;;;1.00;;
65189;SDS011;51777;53.570;9.984;2023-04-03T14:55:57;1.77;;;1.00;;
65189;SDS011;51777;53.570;9.984;2023-04-03T14:58:23;2.75;;;1.00;;
65189;SDS011;51777;53.570;9.984;2023-04-03T15:00:52;3.63;;;0.98;;
65189;SDS011;51777;53.570;9.984;2023-04-03T15:03:18;1.48;;;0.98;;
65189;SDS011;51777;53.570;9.984;2023-04-03T15:05:46;2.80;;;1.10;;
65189;SDS011;51777;53.570;9.984;2023-04-03T15:08:20;4.53;;;1.13;;
65189;SDS011;51777;53.570;9.984;2023-04-03T15:10:54;5.68;;;0.90;;
65189;SDS011;51777;53.570;9.984;2023-04-03T15:13:20;4.32;;;1.00;;
65189;SDS011;51777;53.570;9.984;2023-04-03T15:15:46;3.38;;;0.98;;
65189;SDS011;51777;53.570;9.984;2023-04-03T15:18:16;1.52;;;1.10;;
65189;SDS011;51777;53.570;9.984;2023-04-03T15:20:46;5.93;;;1.30;;
65189;SDS011;51777;53.570;9.984;2023-04-03T15:23:13;2.85;;;1.08;;
65189;SDS011;51777;53.570;9.984;2023-04-03T15:25:41;2.92;;;1.25;;
65189;SDS011;51777;53.570;9.984;2023-04-03T15:28:08;2.90;;;1.30;;
65189;SDS011;51777;53.570;9.984;2023-04-03T15:30:42;3.75;;;1.20;;
65189;SDS011;51777;53.570;9.984;2023-04-03T15:33:07;3.05;;;1.05;;
65189;SDS011;51777;53.570;9.984;2023-04-03T15:35:33;5.43;;;1.17;;
65189;SDS011;51777;53.570;9.984;2023-04-03T15:37:58;2.92;;;1.10;;
65189;SDS011;51777;53.570;9.984;2023-04-03T15:40:24;1.50;;;0.93;;
65189;SDS011;51777;53.570;9.984;2023-04-03T15:42:50;3.03;;;1.00;;
65189;SDS011;51777;53.570;9.984;2023-04-03T15:45:16;2.10;;;1.30;;
65189;SDS011;51777;53.570;9.984;2023-04-03T15:47:41;1.83;;;1.00;;
65189;SDS011;51777;53.570;9.984;2023-04-03T15:50:07;7.88;;;1.25;;
65189;SDS011;51777;53.570;9.984;2023-04-03T15:52:33;4.20;;;1.00;;
65189;SDS011;51777;53.570;9.984;2023-04-03T15:54:59;8.20;;;1.17;;
65189;SDS011;51777;53.570;9.984;2023-04-03T15:57:24;3.13;;;1.05;;
65189;SDS011;51777;53.570;9.984;2023-04-03T15:59:52;5.15;;;1.17;;
65189;SDS011;51777;53.570;9.984;2023-04-03T16:02:18;1.25;;;0.80;;
65189;SDS011;51777;53.570;9.984;2023-04-03T16:04:43;4.13;;;0.90;;
65189;SDS011;51777;53.570;9.984;2023-04-03T16:07:09;2.47;;;1.02;;
65189;SDS011;51777;53.570;9.984;2023-04-03T16:09:34;3.15;;;1.17;;
65189;SDS011;51777;53.570;9.984;2023-04-03T16:12:01;3.88;;;1.30;;
65189;SDS011;51777;53.570;9.984;2023-04-03T16:14:27;4.60;;;1.52;;
65189;SDS011;51777;53.570;9.984;2023-04-03T16:16:54;5.55;;;2.05;;
65189;SDS011;51777;53.570;9.984;2023-04-03T16:19:20;7.90;;;2.55;;
65189;SDS011;51777;53.570;9.984;2023-04-03T16:21:46;4.15;;;1.25;;
65189;SDS011;51777;53.570;9.984;2023-04-03T16:24:12;3.45;;;1.33;;
65189;SDS011;51777;53.570;9.984;2023-04-03T16:26:38;2.00;;;1.20;;
65189;SDS011;51777;53.570;9.984;2023-04-03T16:29:03;5.45;;;1.30;;
65189;SDS011;51777;53.570;9.984;2023-04-03T16:31:28;3.45;;;1.30;;
65189;SDS011;51777;53.570;9.984;2023-04-03T16:33:56;3.08;;;1.30;;
65189;SDS011;51777;53.570;9.984;2023-04-03T16:36:22;3.10;;;1.38;;
65189;SDS011;51777;53.570;9.984;2023-04-03T16:38:48;7.93;;;1.40;;
65189;SDS011;51777;53.570;9.984;2023-04-03T16:41:13;5.35;;;1.25;;
65189;SDS011;51777;53.570;9.984;2023-04-03T16:43:39;3.60;;;1.23;;
65189;SDS011;51777;53.570;9.984;2023-04-03T16:46:04;2.92;;;1.10;;
65189;SDS011;51777;53.570;9.984;2023-04-03T16:48:30;2.75;;;1.10;;